sensor_id;sensor_type;location;lat;lon;timestamp;temperature;humidity
9437;DHT22;4757;59.334;18.034;2024-02-04T00:01:09;3.70;99.90
9437;DHT22;4757;59.334;18.034;2024-02-04T00:03:37;3.70;99.90
9437;DHT22;4757;59.334;18.034;2024-02-04T00:06:04;3.70;99.90
9437;DHT22;4757;59.334;18.034;2024-02-04T00:08:31;3.60;99.90
9437;DHT22;4757;59.334;18.034;2024-02-04T00:10:58;3.60;99.90
9437;DHT22;4757;59.334;18.034;2024-02-04T00:13:25;3.60;99.90
9437;DHT22;4757;59.334;18.034;2024-02-04T00:15:53;3.60;99.90
9437;DHT22;4757;59.334;18.034;2024-02-04T00:18:21;3.60;99.90
9437;DHT22;4757;59.334;18.034;2024-02-04T00:20:48;3.60;99.90
9437;DHT22;4757;59.334;18.034;2024-02-04T00:23:15;3.60;99.90
9437;DHT22;4757;59.334;18.034;2024-02-04T00:25:42;3.60;99.90
9437;DHT22;4757;59.334;18.034;2024-02-04T00:28:10;3.60;99.90
9437;DHT22;4757;59.334;18.034;2024-02-04T00:30:40;3.60;99.90
9437;DHT22;4757;59.334;18.034;2024-02-04T00:33:07;3.70;99.90
9437;DHT22;4757;59.334;18.034;2024-02-04T00:35:34;3.60;99.90
9437;DHT22;4757;59.334;18.034;2024-02-04T00:38:04;3.60;99.90
9437;DHT22;4757;59.334;18.034;2024-02-04T00:40:31;3.60;99.90
9437;DHT22;4757;59.334;18.034;2024-02-04T00:43:03;3.60;99.90
9437;DHT22;4757;59.334;18.034;2024-02-04T00:45:31;3.60;99.90
9437;DHT22;4757;59.334;18.034;2024-02-04T00:47:58;3.60;99.90
9437;DHT22;4757;59.334;18.034;2024-02-04T00:50:25;3.50;99.90
9437;DHT22;4757;59.334;18.034;2024-02-04T00:52:53;3.50;99.90
9437;DHT22;4757;59.334;18.034;2024-02-04T00:55:20;3.50;99.90
9437;DHT22;4757;59.334;18.034;2024-02-04T00:57:47;3.50;99.90
9437;DHT22;4757;59.334;18.034;2024-02-04T01:00:15;3.50;99.90
9437;DHT22;4757;59.334;18.034;2024-02-04T01:02:42;3.50;99.90
9437;DHT22;4757;59.334;18.034;2024-02-04T01:05:09;3.50;99.90
9437;DHT22;4757;59.334;18.034;2024-02-04T01:07:36;3.50;99.90
9437;DHT22;4757;59.334;18.034;2024-02-04T01:10:04;3.60;99.90
9437;DHT22;4757;59.334;18.034;2024-02-04T01:12:35;3.50;99.90
9437;DHT22;4757;59.334;18.034;2024-02-04T01:15:03;3.60;99.90
9437;DHT22;4757;59.334;18.034;2024-02-04T01:17:32;3.60;99.90
9437;DHT22;4757;59.334;18.034;2024-02-04T01:20:01;3.60;99.90
9437;DHT22;4757;59.334;18.034;2024-02-04T01:22:28;3.60;99.90
9437;DHT22;4757;59.334;18.034;2024-02-04T01:24:55;3.50;99.90
9437;DHT22;4757;59.334;18.034;2024-02-04T01:27:22;3.50;99.90
9437;DHT22;4757;59.334;18.034;2024-02-04T01:29:50;3.50;99.90
9437;DHT22;4757;59.334;18.034;2024-02-04T01:32:17;3.60;99.90
9437;DHT22;4757;59.334;18.034;2024-02-04T01:34:44;3.50;99.90
9437;DHT22;4757;59.334;18.034;2024-02-04T01:37:11;3.60;99.90
9437;DHT22;4757;59.334;18.034;2024-02-04T01:39:38;3.60;99.90
9437;DHT22;4757;59.334;18.034;2024-02-04T01:42:05;3.60;99.90
9437;DHT22;4757;59.334;18.034;2024-02-04T01:44:33;3.60;99.90
9437;DHT22;4757;59.334;18.034;2024-02-04T01:47:00;3.60;99.90
9437;DHT22;4757;59.334;18.034;2024-02-04T01:49:27;3.60;99.90
9437;DHT22;4757;59.334;18.034;2024-02-04T01:51:55;3.60;99.90
9437;DHT22;4757;59.334;18.034;2024-02-04T01:54:25;3.60;99.90
9437;DHT22;4757;59.334;18.034;2024-02-04T01:56:52;3.60;99.90
9437;DHT22;4757;59.334;18.034;2024-02-04T01:59:20;3.60;99.90
9437;DHT22;4757;59.334;18.034;2024-02-04T02:01:49;3.50;99.90
9437;DHT22;4757;59.334;18.034;2024-02-04T02:04:16;3.60;99.90
9437;DHT22;4757;59.334;18.034;2024-02-04T02:06:44;3.50;99.90
9437;DHT22;4757;59.334;18.034;2024-02-04T02:09:12;3.50;99.90
9437;DHT22;4757;59.334;18.034;2024-02-04T02:11:40;3.60;99.90
9437;DHT22;4757;59.334;18.034;2024-02-04T02:14:13;3.50;99.90
9437;DHT22;4757;59.334;18.034;2024-02-04T02:16:43;3.50;99.90
9437;DHT22;4757;59.334;18.034;2024-02-04T02:19:40;3.50;99.90
9437;DHT22;4757;59.334;18.034;2024-02-04T02:22:36;3.20;99.90
9437;DHT22;4757;59.334;18.034;2024-02-04T02:25:05;3.50;99.90
9437;DHT22;4757;59.334;18.034;2024-02-04T02:27:34;3.40;99.90
9437;DHT22;4757;59.334;18.034;2024-02-04T02:30:03;3.40;99.90
9437;DHT22;4757;59.334;18.034;2024-02-04T02:32:30;3.40;99.90
9437;DHT22;4757;59.334;18.034;2024-02-04T02:34:57;3.40;99.90
9437;DHT22;4757;59.334;18.034;2024-02-04T02:43:03;3.50;99.90
9437;DHT22;4757;59.334;18.034;2024-02-04T02:45:31;3.50;99.90
9437;DHT22;4757;59.334;18.034;2024-02-04T02:47:59;3.50;99.90
9437;DHT22;4757;59.334;18.034;2024-02-04T02:50:27;3.50;99.90
9437;DHT22;4757;59.334;18.034;2024-02-04T02:52:55;3.40;99.90
9437;DHT22;4757;59.334;18.034;2024-02-04T02:55:22;3.40;99.90
9437;DHT22;4757;59.334;18.034;2024-02-04T02:57:49;3.40;99.90
9437;DHT22;4757;59.334;18.034;2024-02-04T03:00:16;3.40;99.90
9437;DHT22;4757;59.334;18.034;2024-02-04T03:02:43;3.30;99.90
9437;DHT22;4757;59.334;18.034;2024-02-04T03:05:12;3.30;99.90
9437;DHT22;4757;59.334;18.034;2024-02-04T03:07:40;3.30;99.90
9437;DHT22;4757;59.334;18.034;2024-02-04T03:10:08;3.30;99.90
9437;DHT22;4757;59.334;18.034;2024-02-04T03:12:35;3.30;99.90
9437;DHT22;4757;59.334;18.034;2024-02-04T03:15:03;3.30;99.90
9437;DHT22;4757;59.334;18.034;2024-02-04T03:17:30;3.20;99.90
9437;DHT22;4757;59.334;18.034;2024-02-04T03:19:57;3.20;99.90
9437;DHT22;4757;59.334;18.034;2024-02-04T03:22:24;3.20;99.90
9437;DHT22;4757;59.334;18.034;2024-02-04T03:24:51;3.20;99.90
9437;DHT22;4757;59.334;18.034;2024-02-04T03:27:20;3.20;99.90
9437;DHT22;4757;59.334;18.034;2024-02-04T03:29:47;3.10;99.90
9437;DHT22;4757;59.334;18.034;2024-02-04T03:32:14;3.20;99.90
9437;DHT22;4757;59.334;18.034;2024-02-04T03:34:42;3.10;99.90
9437;DHT22;4757;59.334;18.034;2024-02-04T03:37:09;3.10;99.90
9437;DHT22;4757;59.334;18.034;2024-02-04T03:39:37;3.10;99.90
9437;DHT22;4757;59.334;18.034;2024-02-04T03:42:04;3.10;99.90
9437;DHT22;4757;59.334;18.034;2024-02-04T03:44:31;3.10;99.90
9437;DHT22;4757;59.334;18.034;2024-02-04T03:46:58;3.10;99.90
9437;DHT22;4757;59.334;18.034;2024-02-04T03:49:25;3.10;99.90
9437;DHT22;4757;59.334;18.034;2024-02-04T03:51:53;3.10;99.90
9437;DHT22;4757;59.334;18.034;2024-02-04T03:54:20;3.10;99.90
9437;DHT22;4757;59.334;18.034;2024-02-04T03:56:47;3.00;99.90
9437;DHT22;4757;59.334;18.034;2024-02-04T03:59:15;3.10;99.90
9437;DHT22;4757;59.334;18.034;2024-02-04T04:01:47;3.00;99.90
9437;DHT22;4757;59.334;18.034;2024-02-04T04:04:16;3.00;99.90
9437;DHT22;4757;59.334;18.034;2024-02-04T04:06:45;3.00;99.90
9437;DHT22;4757;59.334;18.034;2024-02-04T04:09:12;3.00;99.90
9437;DHT22;4757;59.334;18.034;2024-02-04T04:11:40;3.00;99.90
9437;DHT22;4757;59.334;18.034;2024-02-04T04:14:07;2.90;99.90
9437;DHT22;4757;59.334;18.034;2024-02-04T04:16:34;2.90;99.90
9437;DHT22;4757;59.334;18.034;2024-02-04T04:19:01;2.90;99.90
9437;DHT22;4757;59.334;18.034;2024-02-04T04:21:29;2.90;99.90
9437;DHT22;4757;59.334;18.034;2024-02-04T04:23:56;2.80;99.90
9437;DHT22;4757;59.334;18.034;2024-02-04T04:26:23;2.80;99.90
9437;DHT22;4757;59.334;18.034;2024-02-04T04:28:51;2.80;99.90
9437;DHT22;4757;59.334;18.034;2024-02-04T04:31:18;2.80;99.90
9437;DHT22;4757;59.334;18.034;2024-02-04T04:33:45;2.80;99.90
9437;DHT22;4757;59.334;18.034;2024-02-04T04:36:12;2.70;99.90
9437;DHT22;4757;59.334;18.034;2024-02-04T04:38:39;2.70;99.90
9437;DHT22;4757;59.334;18.034;2024-02-04T04:41:06;2.70;99.90
9437;DHT22;4757;59.334;18.034;2024-02-04T04:43:37;2.70;99.90
9437;DHT22;4757;59.334;18.034;2024-02-04T04:46:05;2.70;99.90
9437;DHT22;4757;59.334;18.034;2024-02-04T04:48:32;2.70;99.90
9437;DHT22;4757;59.334;18.034;2024-02-04T04:50:59;2.70;99.90
9437;DHT22;4757;59.334;18.034;2024-02-04T04:53:26;2.70;99.90
9437;DHT22;4757;59.334;18.034;2024-02-04T04:55:53;2.70;99.90
9437;DHT22;4757;59.334;18.034;2024-02-04T04:58:20;2.70;99.90
9437;DHT22;4757;59.334;18.034;2024-02-04T05:00:48;2.70;99.90
9437;DHT22;4757;59.334;18.034;2024-02-04T05:03:15;2.70;99.90
9437;DHT22;4757;59.334;18.034;2024-02-04T05:05:42;2.70;99.90
9437;DHT22;4757;59.334;18.034;2024-02-04T05:08:09;2.70;99.90
9437;DHT22;4757;59.334;18.034;2024-02-04T05:10:37;2.70;99.90
9437;DHT22;4757;59.334;18.034;2024-02-04T05:13:04;2.70;99.90
9437;DHT22;4757;59.334;18.034;2024-02-04T05:15:31;2.70;99.90
9437;DHT22;4757;59.334;18.034;2024-02-04T05:17:58;2.60;99.90
9437;DHT22;4757;59.334;18.034;2024-02-04T05:20:25;2.60;99.90
9437;DHT22;4757;59.334;18.034;2024-02-04T05:22:53;2.60;99.90
9437;DHT22;4757;59.334;18.034;2024-02-04T05:25:21;2.60;99.90
9437;DHT22;4757;59.334;18.034;2024-02-04T05:27:48;2.60;99.90
9437;DHT22;4757;59.334;18.034;2024-02-04T05:30:15;2.60;99.90
9437;DHT22;4757;59.334;18.034;2024-02-04T05:32:43;2.50;99.90
9437;DHT22;4757;59.334;18.034;2024-02-04T05:35:11;2.50;99.90
9437;DHT22;4757;59.334;18.034;2024-02-04T05:37:39;2.50;99.90
9437;DHT22;4757;59.334;18.034;2024-02-04T05:40:06;2.50;99.90
9437;DHT22;4757;59.334;18.034;2024-02-04T05:42:34;2.40;99.90
9437;DHT22;4757;59.334;18.034;2024-02-04T05:45:03;2.40;99.90
9437;DHT22;4757;59.334;18.034;2024-02-04T05:47:32;2.40;99.90
9437;DHT22;4757;59.334;18.034;2024-02-04T05:50:00;2.40;99.90
9437;DHT22;4757;59.334;18.034;2024-02-04T05:52:27;2.30;99.90
9437;DHT22;4757;59.334;18.034;2024-02-04T05:54:54;2.30;99.90
9437;DHT22;4757;59.334;18.034;2024-02-04T05:57:21;2.30;99.90
9437;DHT22;4757;59.334;18.034;2024-02-04T05:59:50;2.30;99.90
9437;DHT22;4757;59.334;18.034;2024-02-04T06:02:19;2.30;99.90
9437;DHT22;4757;59.334;18.034;2024-02-04T06:04:46;2.20;99.90
9437;DHT22;4757;59.334;18.034;2024-02-04T06:07:15;2.20;99.90
9437;DHT22;4757;59.334;18.034;2024-02-04T06:09:42;2.20;99.90
9437;DHT22;4757;59.334;18.034;2024-02-04T06:12:09;2.20;99.90
9437;DHT22;4757;59.334;18.034;2024-02-04T06:14:36;2.20;99.90
9437;DHT22;4757;59.334;18.034;2024-02-04T06:17:07;2.20;99.90
9437;DHT22;4757;59.334;18.034;2024-02-04T06:19:35;2.10;99.90
9437;DHT22;4757;59.334;18.034;2024-02-04T06:22:03;2.10;99.90
9437;DHT22;4757;59.334;18.034;2024-02-04T06:24:30;2.10;99.90
9437;DHT22;4757;59.334;18.034;2024-02-04T06:26:58;2.10;99.90
9437;DHT22;4757;59.334;18.034;2024-02-04T06:29:25;2.10;99.90
9437;DHT22;4757;59.334;18.034;2024-02-04T06:31:52;2.00;99.90
9437;DHT22;4757;59.334;18.034;2024-02-04T06:34:21;2.00;99.90
9437;DHT22;4757;59.334;18.034;2024-02-04T06:36:49;2.00;99.90
9437;DHT22;4757;59.334;18.034;2024-02-04T06:39:16;2.00;99.90
9437;DHT22;4757;59.334;18.034;2024-02-04T06:41:46;1.90;99.90
9437;DHT22;4757;59.334;18.034;2024-02-04T06:44:13;1.20;99.90
9437;DHT22;4757;59.334;18.034;2024-02-04T06:46:40;1.90;99.90
9437;DHT22;4757;59.334;18.034;2024-02-04T06:49:09;1.90;99.90
9437;DHT22;4757;59.334;18.034;2024-02-04T06:51:36;1.90;99.90
9437;DHT22;4757;59.334;18.034;2024-02-04T06:54:03;1.90;99.90
9437;DHT22;4757;59.334;18.034;2024-02-04T06:56:30;1.90;99.90
9437;DHT22;4757;59.334;18.034;2024-02-04T06:58:57;1.90;99.90
9437;DHT22;4757;59.334;18.034;2024-02-04T07:01:24;1.90;99.90
9437;DHT22;4757;59.334;18.034;2024-02-04T07:03:52;1.90;99.90
9437;DHT22;4757;59.334;18.034;2024-02-04T07:06:19;1.90;99.90
9437;DHT22;4757;59.334;18.034;2024-02-04T07:08:46;1.90;99.90
9437;DHT22;4757;59.334;18.034;2024-02-04T07:11:16;2.00;99.90
9437;DHT22;4757;59.334;18.034;2024-02-04T07:13:44;2.00;99.90
9437;DHT22;4757;59.334;18.034;2024-02-04T07:16:11;2.00;99.90
9437;DHT22;4757;59.334;18.034;2024-02-04T07:18:38;2.00;99.90
9437;DHT22;4757;59.334;18.034;2024-02-04T07:21:05;2.00;99.90
9437;DHT22;4757;59.334;18.034;2024-02-04T07:23:32;2.00;99.90
9437;DHT22;4757;59.334;18.034;2024-02-04T07:25:59;2.00;99.90
9437;DHT22;4757;59.334;18.034;2024-02-04T07:28:26;2.10;99.90
9437;DHT22;4757;59.334;18.034;2024-02-04T07:30:54;2.10;99.90
9437;DHT22;4757;59.334;18.034;2024-02-04T07:33:22;2.10;99.90
9437;DHT22;4757;59.334;18.034;2024-02-04T07:35:52;2.10;99.90
9437;DHT22;4757;59.334;18.034;2024-02-04T07:38:19;2.20;99.90
9437;DHT22;4757;59.334;18.034;2024-02-04T07:40:46;2.20;99.90
9437;DHT22;4757;59.334;18.034;2024-02-04T07:43:14;2.20;99.90
9437;DHT22;4757;59.334;18.034;2024-02-04T07:45:41;2.20;99.90
9437;DHT22;4757;59.334;18.034;2024-02-04T07:48:08;2.20;99.90
9437;DHT22;4757;59.334;18.034;2024-02-04T07:50:36;2.30;99.90
9437;DHT22;4757;59.334;18.034;2024-02-04T07:53:03;2.30;99.90
9437;DHT22;4757;59.334;18.034;2024-02-04T07:55:31;2.30;99.90
9437;DHT22;4757;59.334;18.034;2024-02-04T07:57:59;2.30;99.90
9437;DHT22;4757;59.334;18.034;2024-02-04T08:00:26;2.30;99.90
9437;DHT22;4757;59.334;18.034;2024-02-04T08:02:55;2.30;99.90
9437;DHT22;4757;59.334;18.034;2024-02-04T08:05:22;2.30;99.90
9437;DHT22;4757;59.334;18.034;2024-02-04T08:07:52;2.30;99.90
9437;DHT22;4757;59.334;18.034;2024-02-04T08:10:19;2.30;99.90
9437;DHT22;4757;59.334;18.034;2024-02-04T08:12:47;2.30;99.90
9437;DHT22;4757;59.334;18.034;2024-02-04T08:15:17;2.30;99.90
9437;DHT22;4757;59.334;18.034;2024-02-04T08:17:45;2.30;99.90
9437;DHT22;4757;59.334;18.034;2024-02-04T08:20:12;2.40;99.90
9437;DHT22;4757;59.334;18.034;2024-02-04T08:22:39;2.40;99.90
9437;DHT22;4757;59.334;18.034;2024-02-04T08:25:42;2.40;99.90
9437;DHT22;4757;59.334;18.034;2024-02-04T08:28:41;2.50;99.90
9437;DHT22;4757;59.334;18.034;2024-02-04T08:32:04;2.50;99.90
9437;DHT22;4757;59.334;18.034;2024-02-04T08:34:34;2.50;99.90
9437;DHT22;4757;59.334;18.034;2024-02-04T08:37:02;2.50;99.90
9437;DHT22;4757;59.334;18.034;2024-02-04T08:39:30;2.60;99.90
9437;DHT22;4757;59.334;18.034;2024-02-04T08:41:57;2.60;99.90
9437;DHT22;4757;59.334;18.034;2024-02-04T08:44:24;2.70;99.90
9437;DHT22;4757;59.334;18.034;2024-02-04T08:47:04;2.60;99.90
9437;DHT22;4757;59.334;18.034;2024-02-04T08:49:32;2.70;99.90
9437;DHT22;4757;59.334;18.034;2024-02-04T08:52:04;2.70;99.90
9437;DHT22;4757;59.334;18.034;2024-02-04T08:54:31;2.70;99.90
9437;DHT22;4757;59.334;18.034;2024-02-04T08:56:59;2.70;99.90
9437;DHT22;4757;59.334;18.034;2024-02-04T08:59:33;2.70;99.90
9437;DHT22;4757;59.334;18.034;2024-02-04T09:02:09;2.70;99.90
9437;DHT22;4757;59.334;18.034;2024-02-04T09:04:37;2.70;99.90
9437;DHT22;4757;59.334;18.034;2024-02-04T09:07:08;2.70;99.90
9437;DHT22;4757;59.334;18.034;2024-02-04T09:09:35;2.80;99.90
9437;DHT22;4757;59.334;18.034;2024-02-04T09:12:04;2.80;99.90
9437;DHT22;4757;59.334;18.034;2024-02-04T09:14:31;2.80;99.90
9437;DHT22;4757;59.334;18.034;2024-02-04T09:16:59;2.80;99.90
9437;DHT22;4757;59.334;18.034;2024-02-04T09:19:28;2.80;99.90
9437;DHT22;4757;59.334;18.034;2024-02-04T09:21:57;2.90;99.90
9437;DHT22;4757;59.334;18.034;2024-02-04T09:24:27;2.90;99.90
9437;DHT22;4757;59.334;18.034;2024-02-04T09:26:57;2.90;99.90
9437;DHT22;4757;59.334;18.034;2024-02-04T09:29:24;2.90;99.90
9437;DHT22;4757;59.334;18.034;2024-02-04T09:31:51;2.90;99.90
9437;DHT22;4757;59.334;18.034;2024-02-04T09:34:21;2.90;99.90
9437;DHT22;4757;59.334;18.034;2024-02-04T09:36:50;3.00;99.90
9437;DHT22;4757;59.334;18.034;2024-02-04T09:39:20;3.00;99.90
9437;DHT22;4757;59.334;18.034;2024-02-04T09:41:47;2.90;99.90
9437;DHT22;4757;59.334;18.034;2024-02-04T09:44:17;2.90;99.90
9437;DHT22;4757;59.334;18.034;2024-02-04T09:46:45;3.00;99.90
9437;DHT22;4757;59.334;18.034;2024-02-04T09:49:13;3.00;99.90
9437;DHT22;4757;59.334;18.034;2024-02-04T09:51:41;3.00;99.90
9437;DHT22;4757;59.334;18.034;2024-02-04T09:54:11;3.10;99.90
9437;DHT22;4757;59.334;18.034;2024-02-04T09:56:38;3.10;99.90
9437;DHT22;4757;59.334;18.034;2024-02-04T09:59:07;3.10;99.90
9437;DHT22;4757;59.334;18.034;2024-02-04T10:01:35;3.10;99.90
9437;DHT22;4757;59.334;18.034;2024-02-04T10:04:03;3.20;99.90
9437;DHT22;4757;59.334;18.034;2024-02-04T10:06:31;3.20;99.90
9437;DHT22;4757;59.334;18.034;2024-02-04T10:09:00;3.20;99.90
9437;DHT22;4757;59.334;18.034;2024-02-04T10:11:27;3.20;99.90
9437;DHT22;4757;59.334;18.034;2024-02-04T10:13:55;3.20;99.90
9437;DHT22;4757;59.334;18.034;2024-02-04T10:16:22;3.30;99.90
9437;DHT22;4757;59.334;18.034;2024-02-04T10:18:49;3.30;99.90
9437;DHT22;4757;59.334;18.034;2024-02-04T10:21:18;3.30;99.90
9437;DHT22;4757;59.334;18.034;2024-02-04T10:23:50;3.30;99.90
9437;DHT22;4757;59.334;18.034;2024-02-04T10:26:18;3.30;99.90
9437;DHT22;4757;59.334;18.034;2024-02-04T10:28:49;3.30;99.90
9437;DHT22;4757;59.334;18.034;2024-02-04T10:31:16;3.30;99.90
9437;DHT22;4757;59.334;18.034;2024-02-04T10:33:43;3.30;99.90
9437;DHT22;4757;59.334;18.034;2024-02-04T10:36:11;3.30;99.90
9437;DHT22;4757;59.334;18.034;2024-02-04T10:38:39;3.30;99.90
9437;DHT22;4757;59.334;18.034;2024-02-04T10:41:17;3.30;99.90
9437;DHT22;4757;59.334;18.034;2024-02-04T10:43:44;3.40;99.90
9437;DHT22;4757;59.334;18.034;2024-02-04T10:46:19;3.40;99.90
9437;DHT22;4757;59.334;18.034;2024-02-04T10:48:52;3.40;99.90
9437;DHT22;4757;59.334;18.034;2024-02-04T10:51:25;3.40;99.90
9437;DHT22;4757;59.334;18.034;2024-02-04T10:53:58;3.40;99.90
9437;DHT22;4757;59.334;18.034;2024-02-04T10:56:31;3.30;99.90
9437;DHT22;4757;59.334;18.034;2024-02-04T10:58:59;3.30;99.90
9437;DHT22;4757;59.334;18.034;2024-02-04T11:01:30;3.30;99.90
9437;DHT22;4757;59.334;18.034;2024-02-04T11:03:59;3.30;99.90
9437;DHT22;4757;59.334;18.034;2024-02-04T11:06:27;3.30;99.90
9437;DHT22;4757;59.334;18.034;2024-02-04T11:08:55;3.30;99.90
9437;DHT22;4757;59.334;18.034;2024-02-04T11:11:25;3.30;99.90
9437;DHT22;4757;59.334;18.034;2024-02-04T11:13:56;3.20;99.90
9437;DHT22;4757;59.334;18.034;2024-02-04T11:17:04;3.20;99.90
9437;DHT22;4757;59.334;18.034;2024-02-04T11:27:47;3.10;99.90
9437;DHT22;4757;59.334;18.034;2024-02-04T11:30:15;3.10;99.90
9437;DHT22;4757;59.334;18.034;2024-02-04T11:32:42;3.20;99.90
9437;DHT22;4757;59.334;18.034;2024-02-04T11:35:13;3.30;99.90
9437;DHT22;4757;59.334;18.034;2024-02-04T11:37:41;3.30;99.90
9437;DHT22;4757;59.334;18.034;2024-02-04T11:40:15;3.50;99.90
9437;DHT22;4757;59.334;18.034;2024-02-04T11:42:46;3.60;99.90
9437;DHT22;4757;59.334;18.034;2024-02-04T11:45:14;3.70;99.90
9437;DHT22;4757;59.334;18.034;2024-02-04T11:47:41;3.80;99.90
9437;DHT22;4757;59.334;18.034;2024-02-04T11:50:09;3.90;99.90
9437;DHT22;4757;59.334;18.034;2024-02-04T11:52:39;4.00;99.90
9437;DHT22;4757;59.334;18.034;2024-02-04T11:55:13;4.10;99.90
9437;DHT22;4757;59.334;18.034;2024-02-04T11:57:40;4.20;99.90
9437;DHT22;4757;59.334;18.034;2024-02-04T12:00:08;4.20;99.90
9437;DHT22;4757;59.334;18.034;2024-02-04T12:02:38;4.20;99.90
9437;DHT22;4757;59.334;18.034;2024-02-04T12:05:07;4.30;99.90
9437;DHT22;4757;59.334;18.034;2024-02-04T12:07:36;4.30;99.90
9437;DHT22;4757;59.334;18.034;2024-02-04T12:10:09;4.20;99.90
9437;DHT22;4757;59.334;18.034;2024-02-04T12:12:38;4.20;99.90
9437;DHT22;4757;59.334;18.034;2024-02-04T12:15:05;4.20;99.90
9437;DHT22;4757;59.334;18.034;2024-02-04T12:17:32;4.20;99.90
9437;DHT22;4757;59.334;18.034;2024-02-04T12:20:00;4.20;99.90
9437;DHT22;4757;59.334;18.034;2024-02-04T12:22:27;4.20;99.90
9437;DHT22;4757;59.334;18.034;2024-02-04T12:24:55;4.10;99.90
9437;DHT22;4757;59.334;18.034;2024-02-04T12:27:26;4.20;99.90
9437;DHT22;4757;59.334;18.034;2024-02-04T12:29:53;4.20;99.90
9437;DHT22;4757;59.334;18.034;2024-02-04T12:32:20;4.20;99.90
9437;DHT22;4757;59.334;18.034;2024-02-04T12:34:48;4.20;99.90
9437;DHT22;4757;59.334;18.034;2024-02-04T12:37:16;4.30;99.90
9437;DHT22;4757;59.334;18.034;2024-02-04T12:39:43;4.30;99.90
9437;DHT22;4757;59.334;18.034;2024-02-04T12:42:15;4.20;99.90
9437;DHT22;4757;59.334;18.034;2024-02-04T12:44:50;4.20;99.90
9437;DHT22;4757;59.334;18.034;2024-02-04T12:47:19;4.10;99.90
9437;DHT22;4757;59.334;18.034;2024-02-04T12:49:47;4.20;99.90
9437;DHT22;4757;59.334;18.034;2024-02-04T12:52:14;4.30;99.90
9437;DHT22;4757;59.334;18.034;2024-02-04T12:54:44;4.30;99.90
9437;DHT22;4757;59.334;18.034;2024-02-04T12:57:24;4.30;99.90
9437;DHT22;4757;59.334;18.034;2024-02-04T12:59:51;4.20;99.90
9437;DHT22;4757;59.334;18.034;2024-02-04T13:02:19;4.30;99.90
9437;DHT22;4757;59.334;18.034;2024-02-04T13:04:48;4.30;99.90
9437;DHT22;4757;59.334;18.034;2024-02-04T13:07:15;4.30;99.90
9437;DHT22;4757;59.334;18.034;2024-02-04T13:09:46;4.40;99.90
9437;DHT22;4757;59.334;18.034;2024-02-04T13:12:15;4.40;99.90
9437;DHT22;4757;59.334;18.034;2024-02-04T13:14:44;4.50;99.90
9437;DHT22;4757;59.334;18.034;2024-02-04T13:17:11;4.60;99.90
9437;DHT22;4757;59.334;18.034;2024-02-04T13:19:39;4.50;99.90
9437;DHT22;4757;59.334;18.034;2024-02-04T13:22:07;4.50;99.90
9437;DHT22;4757;59.334;18.034;2024-02-04T13:24:37;4.50;99.90
9437;DHT22;4757;59.334;18.034;2024-02-04T13:27:05;4.50;99.90
9437;DHT22;4757;59.334;18.034;2024-02-04T13:29:35;4.50;99.90
9437;DHT22;4757;59.334;18.034;2024-02-04T13:32:02;4.40;99.90
9437;DHT22;4757;59.334;18.034;2024-02-04T13:34:30;4.40;99.90
9437;DHT22;4757;59.334;18.034;2024-02-04T13:36:57;4.40;99.90
9437;DHT22;4757;59.334;18.034;2024-02-04T13:39:25;4.40;99.90
9437;DHT22;4757;59.334;18.034;2024-02-04T13:41:53;4.40;99.90
9437;DHT22;4757;59.334;18.034;2024-02-04T13:44:20;4.30;99.90
9437;DHT22;4757;59.334;18.034;2024-02-04T13:46:51;4.30;99.90
9437;DHT22;4757;59.334;18.034;2024-02-04T13:49:21;4.30;99.90
9437;DHT22;4757;59.334;18.034;2024-02-04T13:51:52;4.30;99.90
9437;DHT22;4757;59.334;18.034;2024-02-04T13:54:19;4.20;99.90
9437;DHT22;4757;59.334;18.034;2024-02-04T13:56:49;4.20;99.90
9437;DHT22;4757;59.334;18.034;2024-02-04T13:59:20;4.20;99.90
9437;DHT22;4757;59.334;18.034;2024-02-04T14:02:02;4.10;99.90
9437;DHT22;4757;59.334;18.034;2024-02-04T14:04:30;4.20;99.90
9437;DHT22;4757;59.334;18.034;2024-02-04T14:06:58;4.10;99.90
9437;DHT22;4757;59.334;18.034;2024-02-04T14:09:25;4.00;99.90
9437;DHT22;4757;59.334;18.034;2024-02-04T14:11:53;4.30;99.90
9437;DHT22;4757;59.334;18.034;2024-02-04T14:14:23;4.00;99.90
9437;DHT22;4757;59.334;18.034;2024-02-04T14:16:50;3.90;99.90
9437;DHT22;4757;59.334;18.034;2024-02-04T14:19:17;3.90;99.90
9437;DHT22;4757;59.334;18.034;2024-02-04T14:21:45;3.90;99.90
9437;DHT22;4757;59.334;18.034;2024-02-04T14:24:12;3.90;99.90
9437;DHT22;4757;59.334;18.034;2024-02-04T14:26:39;3.80;99.90
9437;DHT22;4757;59.334;18.034;2024-02-04T14:29:08;3.70;99.90
9437;DHT22;4757;59.334;18.034;2024-02-04T14:31:35;3.70;99.90
9437;DHT22;4757;59.334;18.034;2024-02-04T14:34:02;3.70;99.90
9437;DHT22;4757;59.334;18.034;2024-02-04T14:36:30;3.60;99.90
9437;DHT22;4757;59.334;18.034;2024-02-04T14:38:57;3.60;99.90
9437;DHT22;4757;59.334;18.034;2024-02-04T14:41:28;3.50;99.90
9437;DHT22;4757;59.334;18.034;2024-02-04T14:43:55;3.40;99.90
9437;DHT22;4757;59.334;18.034;2024-02-04T14:46:25;3.40;99.90
9437;DHT22;4757;59.334;18.034;2024-02-04T14:48:52;3.40;99.90
9437;DHT22;4757;59.334;18.034;2024-02-04T14:51:19;3.30;99.90
9437;DHT22;4757;59.334;18.034;2024-02-04T14:53:47;3.30;99.90
9437;DHT22;4757;59.334;18.034;2024-02-04T14:56:14;3.20;99.90
9437;DHT22;4757;59.334;18.034;2024-02-04T14:58:41;3.20;99.90
9437;DHT22;4757;59.334;18.034;2024-02-04T15:01:09;3.10;99.90
9437;DHT22;4757;59.334;18.034;2024-02-04T15:03:36;3.10;99.90
9437;DHT22;4757;59.334;18.034;2024-02-04T15:06:04;3.00;99.90
9437;DHT22;4757;59.334;18.034;2024-02-04T15:08:31;3.00;99.90
9437;DHT22;4757;59.334;18.034;2024-02-04T15:10:59;3.00;99.90
9437;DHT22;4757;59.334;18.034;2024-02-04T15:13:26;2.90;99.90
9437;DHT22;4757;59.334;18.034;2024-02-04T15:15:57;2.90;99.90
9437;DHT22;4757;59.334;18.034;2024-02-04T15:18:25;2.80;99.90
9437;DHT22;4757;59.334;18.034;2024-02-04T15:20:52;2.80;99.90
9437;DHT22;4757;59.334;18.034;2024-02-04T15:23:20;2.80;99.90
9437;DHT22;4757;59.334;18.034;2024-02-04T15:25:48;2.70;99.90
9437;DHT22;4757;59.334;18.034;2024-02-04T15:28:15;2.70;99.90
9437;DHT22;4757;59.334;18.034;2024-02-04T15:30:43;2.70;99.90
9437;DHT22;4757;59.334;18.034;2024-02-04T15:33:11;2.70;99.90
9437;DHT22;4757;59.334;18.034;2024-02-04T15:35:39;2.60;99.90
9437;DHT22;4757;59.334;18.034;2024-02-04T15:38:06;2.70;99.90
9437;DHT22;4757;59.334;18.034;2024-02-04T15:40:34;2.60;99.90
9437;DHT22;4757;59.334;18.034;2024-02-04T15:43:01;2.60;99.90
9437;DHT22;4757;59.334;18.034;2024-02-04T15:45:28;2.50;99.90
9437;DHT22;4757;59.334;18.034;2024-02-04T15:47:56;2.50;99.90
9437;DHT22;4757;59.334;18.034;2024-02-04T15:50:24;2.50;99.90
9437;DHT22;4757;59.334;18.034;2024-02-04T15:52:52;2.40;99.90
9437;DHT22;4757;59.334;18.034;2024-02-04T15:55:19;2.40;99.90
9437;DHT22;4757;59.334;18.034;2024-02-04T15:57:49;2.40;99.90
9437;DHT22;4757;59.334;18.034;2024-02-04T16:00:18;2.30;99.90
9437;DHT22;4757;59.334;18.034;2024-02-04T16:02:50;2.30;99.90
9437;DHT22;4757;59.334;18.034;2024-02-04T16:05:18;2.30;99.90
9437;DHT22;4757;59.334;18.034;2024-02-04T16:07:46;2.30;99.90
9437;DHT22;4757;59.334;18.034;2024-02-04T16:10:16;2.30;99.90
9437;DHT22;4757;59.334;18.034;2024-02-04T16:12:55;2.30;99.90
9437;DHT22;4757;59.334;18.034;2024-02-04T16:15:25;2.20;99.90
9437;DHT22;4757;59.334;18.034;2024-02-04T16:17:53;2.20;99.90
9437;DHT22;4757;59.334;18.034;2024-02-04T16:20:22;2.20;99.90
9437;DHT22;4757;59.334;18.034;2024-02-04T16:22:56;2.10;99.90
9437;DHT22;4757;59.334;18.034;2024-02-04T16:25:25;2.10;99.90